Aérodrome :
LOGIN :

S'inscrire | Disclaimer

   EN    FR    IT 

 










Légende :    VFR   VFR Marginal   IFR   IFR Intensif   IFR Très Intensif
Visi : 
Plafond : 
>= 8 km
>= 3000ft
5 à 8 km
1000 à 3000 ft
1500m à 5 km
500 à 1000 ft
800 à 1500m
200 à 500 ft
< 800m
< 200 ft
Symboles :   Orages  Brouillard  Fortes neiges  Fortes précipitations  Vent > 20 kt
SIGMETs :   Divers  Orages  Givrage  Turbulence  Onde Orograph.  Cendres Volcan.







- Altitude de l'aérodrome : 195 ft
- Voir les cartes d'approche


LFMY - Salon de Provence

DERNIER METAR :
  • 181830Z AUTO 10009KT 9999 FEW031 SCT039 BKN045 11/05 Q1024

METARs EXPIRÉS :
  • 181800Z AUTO 10009KT 9999 SCT033 BKN041 BKN048 11/05 Q1023
  • 181730Z AUTO 10007KT 9999 SCT034 SCT043 BKN050 11/05 Q1023
  • 181700Z AUTO 11007KT 9999 FEW029 SCT036 BKN045 11/05 Q1023
  • 181630Z AUTO 11008KT 9999 FEW033 BKN040 OVC047 11/06 Q1023 NOSIG
  • 181600Z AUTO 10006KT 9999 BKN044 11/06 Q1023 NOSIG

TAF TAF LFMY
Valide du 18 à 15h jusqu'au 19 à 15h UTC


181400Z 1815/1915 10012KT CAVOK
BECMG 1819/1821 12015G28KT
BECMG 1901/1903 5000 RA OVC020
Pas de NOTAMs connus pour ce terrain.
2 SIGMETs publiés pour la FIR Marseille (LFMM) :
 
Turbulence forte
LFMM SIGMET 3 VALID 181600/182000 LFPW
LFMM MARSEILLE FIR/UIR SEV TURB FCST WI N4630 E00430 - N4630 E00530 - N4445 E00515 - N4445 E00430 - N4630 E00430 SFC/FL050 STNR NC=
Turbulence forte
LFMM SIGMET 2 VALID 181600/182000 LFPW
LFMM MARSEILLE FIR/UIR SEV TURB FCST WI N4300 E00230 - N4500 E00245 - N4430 E00400 - N4300 E00230 SFC/FL060 STNR WKN=



MET'MAP, la Météo Aéronautique d'un coup d'oeil ! - Copyright ORBIFLY Décembre 2007 - Disclaimer

ORBIFLY MET'MAP TEAM :

Programmation & Développement : Alexandra Zaïnal
Conception & Développement : Baudouin d'Aumeries
Co-Programmation & Développement : Marc-Olivier Méhu
Soutien technique & logistique : Manuel Goepfert

Contact : metmap@orbifly.com




SOURCES & CREDITS :

   NOAA